CST,Max TemperatureF,Mean TemperatureF,Min TemperatureF,Max Dew PointF,MeanDew PointF,Min DewpointF,Max Humidity, Mean Humidity, Min Humidity, Max Sea Level PressureIn, Mean Sea Level PressureIn, Min Sea Level PressureIn, Max VisibilityMiles, Mean VisibilityMiles, Min VisibilityMiles, Max Wind SpeedMPH, Mean Wind SpeedMPH, Max Gust SpeedMPH,PrecipitationIn, CloudCover, Events, WindDirDegrees
2013-1-1,22,11,0,21,10,-4,95,89,83,30.26,30.17,30.03,10,8,5,14,3,,0.00,6,Snow,204
2013-1-2,33,20,8,29,22,5,92,86,80,30.21,30.06,29.99,10,10,7,14,6,20,0.00,7,Snow,295
2013-1-3,29,20,12,26,16,8,89,83,75,30.39,30.30,30.21,10,10,7,17,10,24,0.00,4,Snow,274
2013-1-4,31,18,6,19,12,3,91,76,55,30.23,30.14,30.05,10,10,10,12,4,,0.00,0,,211
2013-1-5,34,21,8,25,15,5,87,79,63,30.20,30.04,29.96,10,10,5,23,9,34,0.00,2,Snow,290
2013-1-6,30,17,4,24,16,2,93,81,69,30.26,30.17,30.01,10,10,7,17,5,20,0.00,0,,205
2013-1-7,34,22,10,26,21,8,96,80,68,30.00,29.96,29.91,10,10,7,21,8,25,0.00,0,,214
2013-1-8,40,24,8,32,20,6,100,87,68,30.10,29.89,29.77,10,6,0,12,3,,0.00,4,Fog,226
2013-1-9,39,28,18,31,27,18,96,82,69,30.40,30.27,30.12,10,10,10,15,6,17,0.00,0,,204
2013-1-10,37,32,27,35,31,26,100,89,64,30.26,29.94,29.62,10,6,0,21,11,26,0.00,5,Fog-Rain,169
2013-1-11,39,30,21,39,33,15,100,97,76,29.70,29.50,29.36,10,4,0,24,10,33,0.00,8,Fog-Snow,210
2013-1-12,21,14,8,14,7,3,81,72,63,30.12,30.00,29.73,10,10,3,26,19,37,0.00,3,Snow,305
2013-1-13,18,12,5,6,3,0,84,71,52,30.28,30.19,30.10,10,10,7,16,10,22,0.00,3,,313
2013-1-14,28,16,4,13,7,0,85,72,45,30.40,30.32,30.28,10,10,10,12,2,,0.00,0,,210
2013-1-15,33,24,14,17,14,10,86,69,38,30.28,30.14,29.94,10,10,10,18,8,23,0.00,1,,214
2013-1-16,50,36,22,32,28,14,94,70,45,30.26,29.98,29.84,10,10,7,20,12,26,0.00,4,Snow,295
2013-1-17,44,34,23,35,28,23,100,90,56,30.43,30.33,30.20,10,7,0,10,2,,0.00,4,Fog,206
2013-1-18,55,44,32,31,29,26,93,68,32,30.19,29.95,29.84,10,10,10,16,9,16,0.00,0,,216
2013-1-19,49,32,14,31,24,6,82,61,48,30.35,30.04,29.82,10,10,10,24,11,33,0.00,1,,310
2013-1-20,17,14,10,10,6,1,84,71,59,30.41,30.37,30.31,10,10,2,17,8,23,0.00,5,Snow,347
2013-1-21,12,6,0,1,-4,-8,75,64,48,30.42,30.37,30.32,10,10,10,17,10,24,0.00,4,,332
2013-1-22,15,11,7,10,5,-2,87,80,61,30.34,30.27,30.19,10,9,1,12,3,,0.00,5,Snow,159
2013-1-23,23,13,3,16,8,-3,90,77,63,30.51,30.29,30.12,10,10,10,23,8,29,0.00,0,,356
2013-1-24,17,8,0,8,-1,-9,76,67,61,30.54,30.34,30.13,10,10,10,17,9,20,0.00,3,,134
2013-1-25,40,26,12,27,18,7,91,73,54,30.24,30.14,30.06,10,10,7,17,7,22,0.00,0,,306
2013-1-26,46,29,12,29,19,7,88,71,51,30.24,30.08,29.94,10,10,10,20,8,25,0.00,1,,154
2013-1-27,38,36,34,38,34,26,100,92,64,29.94,29.79,29.69,10,4,0,17,9,20,0.02,7,Fog-Rain-Snow,159
2013-1-28,40,36,32,40,36,32,100,100,100,29.83,29.73,29.58,2,1,0,13,5,,0.00,8,Fog-Rain,160
2013-1-29,36,31,26,33,31,24,100,94,85,29.78,29.68,29.61,10,7,1,23,14,30,0.00,8,Snow,341
2013-1-30,26,17,8,23,13,1,89,78,69,29.93,29.83,29.74,10,9,1,28,20,34,0.00,6,Snow,329
2013-1-31,7,2,-3,1,-6,-9,78,66,54,30.37,30.19,29.93,10,10,5,26,14,33,0.00,3,,324